sensor_id;sensor_type;location;lat;lon;timestamp;P1;durP1;ratioP1;P2;durP2;ratioP2
11247;SDS011;5681;53.316;13.950;2023-05-07T00:01:08;10.60;;;7.95;;
11247;SDS011;5681;53.316;13.950;2023-05-07T00:03:36;10.23;;;7.63;;
11247;SDS011;5681;53.316;13.950;2023-05-07T00:06:02;8.77;;;7.20;;
11247;SDS011;5681;53.316;13.950;2023-05-07T00:08:29;8.63;;;7.65;;
11247;SDS011;5681;53.316;13.950;2023-05-07T00:10:56;8.88;;;7.28;;
11247;SDS011;5681;53.316;13.950;2023-05-07T00:13:23;9.55;;;7.40;;
11247;SDS011;5681;53.316;13.950;2023-05-07T00:15:49;8.98;;;6.93;;
11247;SDS011;5681;53.316;13.950;2023-05-07T00:18:15;10.73;;;7.78;;
11247;SDS011;5681;53.316;13.950;2023-05-07T00:20:45;9.05;;;7.55;;
11247;SDS011;5681;53.316;13.950;2023-05-07T00:23:12;11.75;;;7.97;;
11247;SDS011;5681;53.316;13.950;2023-05-07T00:25:38;18.35;;;8.05;;
11247;SDS011;5681;53.316;13.950;2023-05-07T00:28:06;12.75;;;7.97;;
11247;SDS011;5681;53.316;13.950;2023-05-07T00:30:32;12.30;;;7.70;;
11247;SDS011;5681;53.316;13.950;2023-05-07T00:32:58;9.82;;;7.97;;
11247;SDS011;5681;53.316;13.950;2023-05-07T00:35:25;10.65;;;7.55;;
11247;SDS011;5681;53.316;13.950;2023-05-07T00:37:51;14.75;;;8.55;;
11247;SDS011;5681;53.316;13.950;2023-05-07T00:40:18;10.17;;;7.43;;
11247;SDS011;5681;53.316;13.950;2023-05-07T00:42:44;8.55;;;7.15;;
11247;SDS011;5681;53.316;13.950;2023-05-07T00:45:13;10.23;;;7.33;;
11247;SDS011;5681;53.316;13.950;2023-05-07T00:47:39;8.93;;;6.80;;
11247;SDS011;5681;53.316;13.950;2023-05-07T00:50:07;9.20;;;6.63;;
11247;SDS011;5681;53.316;13.950;2023-05-07T00:52:34;9.10;;;6.93;;
11247;SDS011;5681;53.316;13.950;2023-05-07T00:55:01;13.88;;;7.93;;
11247;SDS011;5681;53.316;13.950;2023-05-07T00:57:32;9.30;;;7.10;;
11247;SDS011;5681;53.316;13.950;2023-05-07T00:59:58;8.37;;;6.27;;
11247;SDS011;5681;53.316;13.950;2023-05-07T01:02:26;8.80;;;6.47;;
11247;SDS011;5681;53.316;13.950;2023-05-07T01:04:52;12.10;;;7.33;;
11247;SDS011;5681;53.316;13.950;2023-05-07T01:07:19;10.17;;;7.30;;
11247;SDS011;5681;53.316;13.950;2023-05-07T01:09:45;11.15;;;7.13;;
11247;SDS011;5681;53.316;13.950;2023-05-07T01:12:11;9.83;;;7.43;;
11247;SDS011;5681;53.316;13.950;2023-05-07T01:14:38;11.95;;;7.47;;
11247;SDS011;5681;53.316;13.950;2023-05-07T01:17:05;11.52;;;7.78;;
11247;SDS011;5681;53.316;13.950;2023-05-07T01:19:32;8.27;;;6.80;;
11247;SDS011;5681;53.316;13.950;2023-05-07T01:22:01;11.75;;;7.40;;
11247;SDS011;5681;53.316;13.950;2023-05-07T01:24:30;9.88;;;7.22;;
11247;SDS011;5681;53.316;13.950;2023-05-07T01:26:57;9.45;;;7.15;;
11247;SDS011;5681;53.316;13.950;2023-05-07T01:29:23;8.50;;;7.20;;
11247;SDS011;5681;53.316;13.950;2023-05-07T01:31:50;10.53;;;7.67;;
11247;SDS011;5681;53.316;13.950;2023-05-07T01:34:18;10.13;;;7.38;;
11247;SDS011;5681;53.316;13.950;2023-05-07T01:36:46;8.20;;;7.00;;
11247;SDS011;5681;53.316;13.950;2023-05-07T01:39:13;9.63;;;7.25;;
11247;SDS011;5681;53.316;13.950;2023-05-07T01:41:41;11.15;;;8.05;;
11247;SDS011;5681;53.316;13.950;2023-05-07T01:44:09;10.15;;;7.50;;
11247;SDS011;5681;53.316;13.950;2023-05-07T01:46:36;12.13;;;7.90;;
11247;SDS011;5681;53.316;13.950;2023-05-07T01:49:02;10.13;;;7.78;;
11247;SDS011;5681;53.316;13.950;2023-05-07T01:51:29;9.32;;;7.00;;
11247;SDS011;5681;53.316;13.950;2023-05-07T01:53:56;10.17;;;7.67;;
11247;SDS011;5681;53.316;13.950;2023-05-07T01:56:23;10.03;;;7.90;;
11247;SDS011;5681;53.316;13.950;2023-05-07T01:58:51;12.70;;;8.57;;
11247;SDS011;5681;53.316;13.950;2023-05-07T02:01:18;10.40;;;7.90;;
11247;SDS011;5681;53.316;13.950;2023-05-07T02:03:44;13.85;;;8.75;;
11247;SDS011;5681;53.316;13.950;2023-05-07T02:06:10;13.73;;;8.03;;
11247;SDS011;5681;53.316;13.950;2023-05-07T02:08:37;12.13;;;8.10;;
11247;SDS011;5681;53.316;13.950;2023-05-07T02:11:03;12.00;;;8.40;;
11247;SDS011;5681;53.316;13.950;2023-05-07T02:13:31;9.60;;;8.20;;
11247;SDS011;5681;53.316;13.950;2023-05-07T02:15:59;12.87;;;8.70;;
11247;SDS011;5681;53.316;13.950;2023-05-07T02:18:26;11.23;;;8.10;;
11247;SDS011;5681;53.316;13.950;2023-05-07T02:20:52;11.23;;;8.27;;
11247;SDS011;5681;53.316;13.950;2023-05-07T02:23:18;9.50;;;8.33;;
11247;SDS011;5681;53.316;13.950;2023-05-07T02:25:45;10.63;;;8.60;;
11247;SDS011;5681;53.316;13.950;2023-05-07T02:28:11;14.15;;;8.07;;
11247;SDS011;5681;53.316;13.950;2023-05-07T02:30:38;11.70;;;8.50;;
11247;SDS011;5681;53.316;13.950;2023-05-07T02:33:06;16.73;;;8.93;;
11247;SDS011;5681;53.316;13.950;2023-05-07T02:35:33;10.60;;;8.33;;
11247;SDS011;5681;53.316;13.950;2023-05-07T02:37:59;12.30;;;8.18;;
11247;SDS011;5681;53.316;13.950;2023-05-07T02:40:25;13.20;;;8.47;;
11247;SDS011;5681;53.316;13.950;2023-05-07T02:42:52;11.23;;;8.20;;
11247;SDS011;5681;53.316;13.950;2023-05-07T02:45:18;11.23;;;7.40;;
11247;SDS011;5681;53.316;13.950;2023-05-07T02:47:44;12.97;;;8.03;;
11247;SDS011;5681;53.316;13.950;2023-05-07T02:50:12;13.53;;;7.87;;
11247;SDS011;5681;53.316;13.950;2023-05-07T02:52:39;10.23;;;7.60;;
11247;SDS011;5681;53.316;13.950;2023-05-07T02:55:06;8.97;;;7.43;;
11247;SDS011;5681;53.316;13.950;2023-05-07T02:57:33;9.67;;;7.33;;
11247;SDS011;5681;53.316;13.950;2023-05-07T02:59:59;8.77;;;7.82;;
11247;SDS011;5681;53.316;13.950;2023-05-07T03:02:25;11.27;;;7.78;;
11247;SDS011;5681;53.316;13.950;2023-05-07T03:04:52;10.27;;;8.17;;
11247;SDS011;5681;53.316;13.950;2023-05-07T03:07:19;13.03;;;8.40;;
11247;SDS011;5681;53.316;13.950;2023-05-07T03:09:46;11.23;;;7.80;;
11247;SDS011;5681;53.316;13.950;2023-05-07T03:12:12;13.87;;;8.87;;
11247;SDS011;5681;53.316;13.950;2023-05-07T03:14:38;12.47;;;8.23;;
11247;SDS011;5681;53.316;13.950;2023-05-07T03:17:05;10.90;;;7.77;;
11247;SDS011;5681;53.316;13.950;2023-05-07T03:19:31;9.33;;;7.80;;
11247;SDS011;5681;53.316;13.950;2023-05-07T03:21:57;11.37;;;8.37;;
11247;SDS011;5681;53.316;13.950;2023-05-07T03:24:25;10.73;;;8.53;;
11247;SDS011;5681;53.316;13.950;2023-05-07T03:26:51;9.63;;;8.10;;
11247;SDS011;5681;53.316;13.950;2023-05-07T03:29:18;10.40;;;8.73;;
11247;SDS011;5681;53.316;13.950;2023-05-07T03:31:44;11.67;;;9.40;;
11247;SDS011;5681;53.316;13.950;2023-05-07T03:34:11;13.70;;;9.00;;
11247;SDS011;5681;53.316;13.950;2023-05-07T03:36:37;14.83;;;10.53;;
11247;SDS011;5681;53.316;13.950;2023-05-07T03:39:03;11.20;;;10.03;;
11247;SDS011;5681;53.316;13.950;2023-05-07T03:41:31;13.87;;;11.73;;
11247;SDS011;5681;53.316;13.950;2023-05-07T03:43:58;22.00;;;14.70;;
11247;SDS011;5681;53.316;13.950;2023-05-07T03:46:24;30.47;;;18.37;;
11247;SDS011;5681;53.316;13.950;2023-05-07T03:48:53;27.70;;;18.73;;
11247;SDS011;5681;53.316;13.950;2023-05-07T03:51:20;23.70;;;17.83;;
11247;SDS011;5681;53.316;13.950;2023-05-07T03:53:46;24.57;;;17.17;;
11247;SDS011;5681;53.316;13.950;2023-05-07T03:56:12;34.93;;;21.57;;
11247;SDS011;5681;53.316;13.950;2023-05-07T03:58:40;37.93;;;24.27;;
11247;SDS011;5681;53.316;13.950;2023-05-07T04:01:06;32.40;;;21.00;;
11247;SDS011;5681;53.316;13.950;2023-05-07T04:03:33;26.77;;;19.23;;
11247;SDS011;5681;53.316;13.950;2023-05-07T04:05:59;18.50;;;12.83;;
11247;SDS011;5681;53.316;13.950;2023-05-07T04:08:26;21.50;;;14.17;;
11247;SDS011;5681;53.316;13.950;2023-05-07T04:10:54;14.50;;;10.23;;
11247;SDS011;5681;53.316;13.950;2023-05-07T04:13:20;15.53;;;9.57;;
11247;SDS011;5681;53.316;13.950;2023-05-07T04:15:48;11.83;;;9.20;;
11247;SDS011;5681;53.316;13.950;2023-05-07T04:18:14;13.90;;;9.60;;
11247;SDS011;5681;53.316;13.950;2023-05-07T04:20:41;17.50;;;9.33;;
11247;SDS011;5681;53.316;13.950;2023-05-07T04:23:07;17.37;;;9.90;;
11247;SDS011;5681;53.316;13.950;2023-05-07T04:25:34;14.27;;;9.40;;
11247;SDS011;5681;53.316;13.950;2023-05-07T04:28:00;15.00;;;9.53;;
11247;SDS011;5681;53.316;13.950;2023-05-07T04:30:26;13.83;;;9.63;;
11247;SDS011;5681;53.316;13.950;2023-05-07T04:32:54;16.70;;;10.20;;
11247;SDS011;5681;53.316;13.950;2023-05-07T04:35:21;14.10;;;10.30;;
11247;SDS011;5681;53.316;13.950;2023-05-07T04:37:47;12.73;;;9.20;;
11247;SDS011;5681;53.316;13.950;2023-05-07T04:40:13;16.73;;;10.17;;
11247;SDS011;5681;53.316;13.950;2023-05-07T04:42:40;12.73;;;9.53;;
11247;SDS011;5681;53.316;13.950;2023-05-07T04:45:07;13.33;;;9.80;;
11247;SDS011;5681;53.316;13.950;2023-05-07T04:47:35;12.47;;;8.90;;
11247;SDS011;5681;53.316;13.950;2023-05-07T04:50:03;12.50;;;9.00;;
11247;SDS011;5681;53.316;13.950;2023-05-07T04:52:29;12.13;;;9.80;;
11247;SDS011;5681;53.316;13.950;2023-05-07T04:54:56;10.93;;;9.23;;
11247;SDS011;5681;53.316;13.950;2023-05-07T04:57:22;10.83;;;8.83;;
11247;SDS011;5681;53.316;13.950;2023-05-07T04:59:49;14.93;;;9.00;;
11247;SDS011;5681;53.316;13.950;2023-05-07T05:02:17;11.27;;;9.20;;
11247;SDS011;5681;53.316;13.950;2023-05-07T05:04:44;11.20;;;8.70;;
11247;SDS011;5681;53.316;13.950;2023-05-07T05:07:11;11.93;;;9.20;;
11247;SDS011;5681;53.316;13.950;2023-05-07T05:09:38;12.30;;;8.70;;
11247;SDS011;5681;53.316;13.950;2023-05-07T05:12:04;10.40;;;8.60;;
11247;SDS011;5681;53.316;13.950;2023-05-07T05:14:32;11.27;;;8.73;;
11247;SDS011;5681;53.316;13.950;2023-05-07T05:16:58;9.90;;;8.40;;
11247;SDS011;5681;53.316;13.950;2023-05-07T05:19:24;12.20;;;8.60;;
11247;SDS011;5681;53.316;13.950;2023-05-07T05:21:51;12.70;;;9.00;;
11247;SDS011;5681;53.316;13.950;2023-05-07T05:24:18;10.33;;;7.87;;
11247;SDS011;5681;53.316;13.950;2023-05-07T05:26:45;20.47;;;8.80;;
11247;SDS011;5681;53.316;13.950;2023-05-07T05:29:11;10.93;;;8.40;;
11247;SDS011;5681;53.316;13.950;2023-05-07T05:31:38;12.50;;;7.97;;
11247;SDS011;5681;53.316;13.950;2023-05-07T05:34:04;13.00;;;8.00;;
11247;SDS011;5681;53.316;13.950;2023-05-07T05:36:30;11.77;;;8.07;;
11247;SDS011;5681;53.316;13.950;2023-05-07T05:38:56;11.50;;;7.80;;
11247;SDS011;5681;53.316;13.950;2023-05-07T05:41:24;10.43;;;7.78;;
11247;SDS011;5681;53.316;13.950;2023-05-07T05:43:50;14.05;;;8.73;;
11247;SDS011;5681;53.316;13.950;2023-05-07T05:46:17;11.80;;;8.00;;
11247;SDS011;5681;53.316;13.950;2023-05-07T05:48:43;9.73;;;7.93;;
11247;SDS011;5681;53.316;13.950;2023-05-07T05:51:09;8.88;;;7.32;;
11247;SDS011;5681;53.316;13.950;2023-05-07T05:53:36;9.68;;;6.90;;
11247;SDS011;5681;53.316;13.950;2023-05-07T05:56:05;10.77;;;8.13;;
11247;SDS011;5681;53.316;13.950;2023-05-07T05:58:33;10.35;;;7.25;;
11247;SDS011;5681;53.316;13.950;2023-05-07T06:00:59;10.18;;;6.93;;
11247;SDS011;5681;53.316;13.950;2023-05-07T06:03:27;10.70;;;6.70;;
11247;SDS011;5681;53.316;13.950;2023-05-07T06:05:55;9.65;;;6.40;;
11247;SDS011;5681;53.316;13.950;2023-05-07T06:08:21;9.68;;;6.80;;
11247;SDS011;5681;53.316;13.950;2023-05-07T06:10:47;12.45;;;6.20;;
11247;SDS011;5681;53.316;13.950;2023-05-07T06:13:13;11.52;;;5.97;;
11247;SDS011;5681;53.316;13.950;2023-05-07T06:15:41;9.70;;;6.38;;
11247;SDS011;5681;53.316;13.950;2023-05-07T06:18:07;8.63;;;6.22;;
11247;SDS011;5681;53.316;13.950;2023-05-07T06:20:34;9.48;;;6.97;;
11247;SDS011;5681;53.316;13.950;2023-05-07T06:23:00;13.50;;;7.63;;
11247;SDS011;5681;53.316;13.950;2023-05-07T06:25:27;9.13;;;6.38;;
11247;SDS011;5681;53.316;13.950;2023-05-07T06:27:53;8.13;;;6.18;;
11247;SDS011;5681;53.316;13.950;2023-05-07T06:30:19;9.05;;;5.53;;
11247;SDS011;5681;53.316;13.950;2023-05-07T06:32:47;8.77;;;5.22;;
11247;SDS011;5681;53.316;13.950;2023-05-07T06:35:13;8.32;;;5.40;;
11247;SDS011;5681;53.316;13.950;2023-05-07T06:37:40;8.48;;;5.30;;
11247;SDS011;5681;53.316;13.950;2023-05-07T06:40:08;7.63;;;5.55;;
11247;SDS011;5681;53.316;13.950;2023-05-07T06:42:35;6.65;;;4.88;;
11247;SDS011;5681;53.316;13.950;2023-05-07T06:45:02;6.28;;;5.03;;
11247;SDS011;5681;53.316;13.950;2023-05-07T06:47:28;6.95;;;4.80;;
11247;SDS011;5681;53.316;13.950;2023-05-07T06:49:56;7.03;;;4.70;;
11247;SDS011;5681;53.316;13.950;2023-05-07T06:52:22;6.00;;;4.80;;
11247;SDS011;5681;53.316;13.950;2023-05-07T06:54:48;6.53;;;4.70;;
11247;SDS011;5681;53.316;13.950;2023-05-07T06:57:15;5.55;;;4.45;;
11247;SDS011;5681;53.316;13.950;2023-05-07T06:59:41;7.45;;;4.28;;
11247;SDS011;5681;53.316;13.950;2023-05-07T07:02:07;6.80;;;4.55;;
11247;SDS011;5681;53.316;13.950;2023-05-07T07:04:34;7.50;;;4.53;;
11247;SDS011;5681;53.316;13.950;2023-05-07T07:07:02;8.23;;;4.18;;
11247;SDS011;5681;53.316;13.950;2023-05-07T07:09:28;6.53;;;4.07;;
11247;SDS011;5681;53.316;13.950;2023-05-07T07:11:54;6.82;;;4.20;;
11247;SDS011;5681;53.316;13.950;2023-05-07T07:14:21;5.13;;;4.35;;
11247;SDS011;5681;53.316;13.950;2023-05-07T07:16:47;6.53;;;4.10;;
11247;SDS011;5681;53.316;13.950;2023-05-07T07:19:13;6.30;;;4.28;;
11247;SDS011;5681;53.316;13.950;2023-05-07T07:21:40;7.80;;;4.07;;
11247;SDS011;5681;53.316;13.950;2023-05-07T07:24:08;4.97;;;4.00;;
11247;SDS011;5681;53.316;13.950;2023-05-07T07:26:34;6.70;;;4.20;;
11247;SDS011;5681;53.316;13.950;2023-05-07T07:29:01;8.93;;;4.55;;
11247;SDS011;5681;53.316;13.950;2023-05-07T07:31:27;5.47;;;4.00;;
11247;SDS011;5681;53.316;13.950;2023-05-07T07:33:53;5.80;;;4.03;;
11247;SDS011;5681;53.316;13.950;2023-05-07T07:36:20;6.45;;;5.00;;
11247;SDS011;5681;53.316;13.950;2023-05-07T07:38:46;6.07;;;4.20;;
11247;SDS011;5681;53.316;13.950;2023-05-07T07:41:14;7.55;;;3.83;;
11247;SDS011;5681;53.316;13.950;2023-05-07T07:43:40;7.13;;;4.32;;
11247;SDS011;5681;53.316;13.950;2023-05-07T07:46:06;7.45;;;4.50;;
11247;SDS011;5681;53.316;13.950;2023-05-07T07:48:33;7.13;;;4.20;;
11247;SDS011;5681;53.316;13.950;2023-05-07T07:50:59;6.88;;;4.20;;
11247;SDS011;5681;53.316;13.950;2023-05-07T07:53:25;6.72;;;4.50;;
11247;SDS011;5681;53.316;13.950;2023-05-07T07:55:52;5.43;;;4.43;;
11247;SDS011;5681;53.316;13.950;2023-05-07T07:58:20;5.35;;;4.07;;
11247;SDS011;5681;53.316;13.950;2023-05-07T08:00:47;7.30;;;4.53;;
11247;SDS011;5681;53.316;13.950;2023-05-07T08:03:13;7.72;;;4.43;;
11247;SDS011;5681;53.316;13.950;2023-05-07T08:05:41;6.05;;;4.28;;
11247;SDS011;5681;53.316;13.950;2023-05-07T08:08:08;10.13;;;4.60;;
11247;SDS011;5681;53.316;13.950;2023-05-07T08:10:34;8.50;;;4.45;;
11247;SDS011;5681;53.316;13.950;2023-05-07T08:13:03;11.60;;;6.75;;
11247;SDS011;5681;53.316;13.950;2023-05-07T08:15:31;8.75;;;4.78;;
11247;SDS011;5681;53.316;13.950;2023-05-07T08:17:57;7.07;;;4.57;;
11247;SDS011;5681;53.316;13.950;2023-05-07T08:20:25;10.02;;;6.70;;
11247;SDS011;5681;53.316;13.950;2023-05-07T08:22:51;9.48;;;4.63;;
11247;SDS011;5681;53.316;13.950;2023-05-07T08:25:17;9.35;;;4.60;;
11247;SDS011;5681;53.316;13.950;2023-05-07T08:27:44;9.07;;;4.70;;
11247;SDS011;5681;53.316;13.950;2023-05-07T08:30:11;6.68;;;4.55;;
11247;SDS011;5681;53.316;13.950;2023-05-07T08:32:40;7.68;;;4.25;;
11247;SDS011;5681;53.316;13.950;2023-05-07T08:35:06;9.15;;;4.32;;
11247;SDS011;5681;53.316;13.950;2023-05-07T08:37:33;6.70;;;3.95;;
11247;SDS011;5681;53.316;13.950;2023-05-07T08:39:59;7.85;;;4.53;;
11247;SDS011;5681;53.316;13.950;2023-05-07T08:42:26;6.05;;;4.32;;
11247;SDS011;5681;53.316;13.950;2023-05-07T08:44:54;6.97;;;4.30;;
11247;SDS011;5681;53.316;13.950;2023-05-07T08:47:22;6.50;;;3.92;;
11247;SDS011;5681;53.316;13.950;2023-05-07T08:49:50;8.15;;;4.40;;
11247;SDS011;5681;53.316;13.950;2023-05-07T08:52:17;6.80;;;3.90;;
11247;SDS011;5681;53.316;13.950;2023-05-07T08:54:44;7.75;;;4.28;;
11247;SDS011;5681;53.316;13.950;2023-05-07T08:57:11;6.70;;;4.43;;
11247;SDS011;5681;53.316;13.950;2023-05-07T08:59:37;8.70;;;4.50;;
11247;SDS011;5681;53.316;13.950;2023-05-07T09:02:04;7.65;;;4.30;;
11247;SDS011;5681;53.316;13.950;2023-05-07T09:04:31;7.53;;;4.72;;
11247;SDS011;5681;53.316;13.950;2023-05-07T09:06:59;12.82;;;4.25;;
11247;SDS011;5681;53.316;13.950;2023-05-07T09:09:30;6.93;;;4.25;;
11247;SDS011;5681;53.316;13.950;2023-05-07T09:11:58;5.85;;;4.03;;
11247;SDS011;5681;53.316;13.950;2023-05-07T09:14:25;4.25;;;3.65;;
11247;SDS011;5681;53.316;13.950;2023-05-07T09:16:51;7.05;;;4.20;;
11247;SDS011;5681;53.316;13.950;2023-05-07T09:19:21;6.70;;;4.20;;
11247;SDS011;5681;53.316;13.950;2023-05-07T09:21:48;7.70;;;3.97;;
11247;SDS011;5681;53.316;13.950;2023-05-07T09:24:16;5.40;;;3.15;;
11247;SDS011;5681;53.316;13.950;2023-05-07T09:26:42;8.43;;;3.80;;
11247;SDS011;5681;53.316;13.950;2023-05-07T09:29:09;4.72;;;3.78;;
11247;SDS011;5681;53.316;13.950;2023-05-07T09:31:36;6.40;;;4.18;;
11247;SDS011;5681;53.316;13.950;2023-05-07T09:34:04;8.13;;;3.75;;
11247;SDS011;5681;53.316;13.950;2023-05-07T09:36:31;4.32;;;3.10;;
11247;SDS011;5681;53.316;13.950;2023-05-07T09:38:58;7.25;;;3.10;;
11247;SDS011;5681;53.316;13.950;2023-05-07T09:41:26;3.95;;;3.22;;
11247;SDS011;5681;53.316;13.950;2023-05-07T09:43:54;5.88;;;3.05;;
11247;SDS011;5681;53.316;13.950;2023-05-07T09:46:23;4.97;;;3.25;;
11247;SDS011;5681;53.316;13.950;2023-05-07T09:48:52;7.10;;;3.30;;
11247;SDS011;5681;53.316;13.950;2023-05-07T09:51:21;4.28;;;3.50;;
11247;SDS011;5681;53.316;13.950;2023-05-07T09:53:48;7.47;;;3.85;;
11247;SDS011;5681;53.316;13.950;2023-05-07T09:56:16;7.88;;;3.35;;
11247;SDS011;5681;53.316;13.950;2023-05-07T09:58:45;5.57;;;4.05;;
11247;SDS011;5681;53.316;13.950;2023-05-07T10:01:12;5.78;;;3.10;;
11247;SDS011;5681;53.316;13.950;2023-05-07T10:03:39;4.03;;;3.33;;
11247;SDS011;5681;53.316;13.950;2023-05-07T10:06:08;4.18;;;3.42;;
11247;SDS011;5681;53.316;13.950;2023-05-07T10:08:35;5.72;;;3.20;;
11247;SDS011;5681;53.316;13.950;2023-05-07T10:11:01;5.78;;;3.47;;
11247;SDS011;5681;53.316;13.950;2023-05-07T10:13:30;6.82;;;3.10;;
11247;SDS011;5681;53.316;13.950;2023-05-07T10:15:57;3.30;;;2.80;;
11247;SDS011;5681;53.316;13.950;2023-05-07T10:18:24;5.47;;;2.70;;
11247;SDS011;5681;53.316;13.950;2023-05-07T10:20:54;4.53;;;2.90;;
11247;SDS011;5681;53.316;13.950;2023-05-07T10:23:23;3.15;;;2.55;;
11247;SDS011;5681;53.316;13.950;2023-05-07T10:25:49;4.70;;;2.90;;
11247;SDS011;5681;53.316;13.950;2023-05-07T10:28:16;4.47;;;2.50;;
11247;SDS011;5681;53.316;13.950;2023-05-07T10:30:48;5.68;;;2.85;;
11247;SDS011;5681;53.316;13.950;2023-05-07T10:33:23;4.03;;;2.45;;
11247;SDS011;5681;53.316;13.950;2023-05-07T10:35:52;2.72;;;2.00;;
11247;SDS011;5681;53.316;13.950;2023-05-07T10:38:22;4.93;;;1.90;;
11247;SDS011;5681;53.316;13.950;2023-05-07T10:40:50;4.07;;;2.30;;
11247;SDS011;5681;53.316;13.950;2023-05-07T10:43:16;5.22;;;2.30;;
11247;SDS011;5681;53.316;13.950;2023-05-07T10:45:42;2.97;;;1.90;;
11247;SDS011;5681;53.316;13.950;2023-05-07T10:48:10;3.72;;;1.88;;
11247;SDS011;5681;53.316;13.950;2023-05-07T10:50:39;4.70;;;1.70;;
11247;SDS011;5681;53.316;13.950;2023-05-07T10:53:22;4.35;;;2.13;;
11247;SDS011;5681;53.316;13.950;2023-05-07T10:58:51;3.15;;;2.15;;
11247;SDS011;5681;53.316;13.950;2023-05-07T11:01:28;3.42;;;2.35;;
11247;SDS011;5681;53.316;13.950;2023-05-07T11:04:15;5.05;;;2.30;;
11247;SDS011;5681;53.316;13.950;2023-05-07T11:06:44;3.33;;;2.30;;
11247;SDS011;5681;53.316;13.950;2023-05-07T11:10:01;3.15;;;2.33;;
11247;SDS011;5681;53.316;13.950;2023-05-07T11:12:50;3.13;;;2.30;;
11247;SDS011;5681;53.316;13.950;2023-05-07T11:18:06;5.05;;;2.50;;
11247;SDS011;5681;53.316;13.950;2023-05-07T11:20:46;4.93;;;2.55;;
11247;SDS011;5681;53.316;13.950;2023-05-07T11:26:15;5.90;;;2.17;;
11247;SDS011;5681;53.316;13.950;2023-05-07T11:28:42;2.92;;;2.50;;
11247;SDS011;5681;53.316;13.950;2023-05-07T11:31:09;4.10;;;2.65;;
11247;SDS011;5681;53.316;13.950;2023-05-07T11:33:37;3.83;;;2.05;;
11247;SDS011;5681;53.316;13.950;2023-05-07T11:36:03;2.75;;;2.00;;
11247;SDS011;5681;53.316;13.950;2023-05-07T11:38:30;3.35;;;2.38;;
11247;SDS011;5681;53.316;13.950;2023-05-07T11:41:01;6.10;;;2.33;;
11247;SDS011;5681;53.316;13.950;2023-05-07T11:43:31;4.45;;;2.75;;
11247;SDS011;5681;53.316;13.950;2023-05-07T11:46:04;7.55;;;2.55;;
11247;SDS011;5681;53.316;13.950;2023-05-07T11:48:31;5.55;;;2.22;;
11247;SDS011;5681;53.316;13.950;2023-05-07T11:50:59;4.10;;;2.53;;
11247;SDS011;5681;53.316;13.950;2023-05-07T11:53:27;5.38;;;2.70;;
11247;SDS011;5681;53.316;13.950;2023-05-07T11:55:54;4.57;;;2.50;;
11247;SDS011;5681;53.316;13.950;2023-05-07T11:58:22;5.38;;;2.85;;
11247;SDS011;5681;53.316;13.950;2023-05-07T12:00:50;5.13;;;2.60;;
11247;SDS011;5681;53.316;13.950;2023-05-07T12:03:17;4.38;;;2.63;;
11247;SDS011;5681;53.316;13.950;2023-05-07T12:05:43;7.20;;;2.50;;
11247;SDS011;5681;53.316;13.950;2023-05-07T12:08:13;6.32;;;2.45;;
11247;SDS011;5681;53.316;13.950;2023-05-07T12:10:40;2.90;;;2.25;;
11247;SDS011;5681;53.316;13.950;2023-05-07T12:13:13;3.88;;;2.30;;
11247;SDS011;5681;53.316;13.950;2023-05-07T12:15:40;2.35;;;2.15;;
11247;SDS011;5681;53.316;13.950;2023-05-07T12:18:08;4.22;;;2.60;;
11247;SDS011;5681;53.316;13.950;2023-05-07T12:20:37;4.57;;;2.50;;
11247;SDS011;5681;53.316;13.950;2023-05-07T12:23:04;5.20;;;2.92;;
11247;SDS011;5681;53.316;13.950;2023-05-07T12:25:30;10.00;;;2.72;;
11247;SDS011;5681;53.316;13.950;2023-05-07T12:27:57;4.82;;;2.67;;
11247;SDS011;5681;53.316;13.950;2023-05-07T12:30:23;7.93;;;3.20;;
11247;SDS011;5681;53.316;13.950;2023-05-07T12:32:52;4.82;;;2.60;;
11247;SDS011;5681;53.316;13.950;2023-05-07T12:35:26;6.15;;;2.72;;
11247;SDS011;5681;53.316;13.950;2023-05-07T12:37:56;5.82;;;2.88;;
11247;SDS011;5681;53.316;13.950;2023-05-07T12:40:24;4.35;;;2.78;;
11247;SDS011;5681;53.316;13.950;2023-05-07T12:42:52;6.78;;;2.97;;
11247;SDS011;5681;53.316;13.950;2023-05-07T12:45:19;3.47;;;2.63;;
11247;SDS011;5681;53.316;13.950;2023-05-07T12:47:46;9.98;;;2.83;;
11247;SDS011;5681;53.316;13.950;2023-05-07T12:50:13;5.45;;;3.00;;
11247;SDS011;5681;53.316;13.950;2023-05-07T12:52:41;4.13;;;2.70;;
11247;SDS011;5681;53.316;13.950;2023-05-07T12:55:09;5.88;;;2.75;;
11247;SDS011;5681;53.316;13.950;2023-05-07T12:57:38;6.47;;;2.95;;
11247;SDS011;5681;53.316;13.950;2023-05-07T13:00:06;3.53;;;2.70;;
11247;SDS011;5681;53.316;13.950;2023-05-07T13:02:34;4.15;;;2.35;;
11247;SDS011;5681;53.316;13.950;2023-05-07T13:05:00;6.22;;;2.55;;
11247;SDS011;5681;53.316;13.950;2023-05-07T13:07:27;4.43;;;2.35;;
11247;SDS011;5681;53.316;13.950;2023-05-07T13:09:54;4.57;;;2.60;;
11247;SDS011;5681;53.316;13.950;2023-05-07T13:12:21;8.90;;;2.92;;
11247;SDS011;5681;53.316;13.950;2023-05-07T13:14:47;3.20;;;2.38;;
11247;SDS011;5681;53.316;13.950;2023-05-07T13:17:13;5.82;;;2.47;;
11247;SDS011;5681;53.316;13.950;2023-05-07T13:19:40;4.88;;;2.30;;
11247;SDS011;5681;53.316;13.950;2023-05-07T13:22:06;7.03;;;2.92;;
11247;SDS011;5681;53.316;13.950;2023-05-07T13:24:32;3.75;;;2.50;;
11247;SDS011;5681;53.316;13.950;2023-05-07T13:27:00;3.00;;;2.50;;
11247;SDS011;5681;53.316;13.950;2023-05-07T13:29:26;4.00;;;2.42;;
11247;SDS011;5681;53.316;13.950;2023-05-07T13:31:55;4.15;;;2.35;;
11247;SDS011;5681;53.316;13.950;2023-05-07T13:34:22;7.25;;;2.67;;
11247;SDS011;5681;53.316;13.950;2023-05-07T13:36:48;4.72;;;2.50;;
11247;SDS011;5681;53.316;13.950;2023-05-07T13:39:15;6.35;;;2.72;;
11247;SDS011;5681;53.316;13.950;2023-05-07T13:41:41;5.57;;;2.55;;
11247;SDS011;5681;53.316;13.950;2023-05-07T13:44:09;3.17;;;2.10;;
11247;SDS011;5681;53.316;13.950;2023-05-07T13:46:36;5.32;;;2.05;;
11247;SDS011;5681;53.316;13.950;2023-05-07T13:49:02;3.10;;;2.13;;
11247;SDS011;5681;53.316;13.950;2023-05-07T13:51:29;6.07;;;2.20;;
11247;SDS011;5681;53.316;13.950;2023-05-07T13:53:55;2.83;;;2.10;;
11247;SDS011;5681;53.316;13.950;2023-05-07T13:56:23;2.17;;;1.98;;
11247;SDS011;5681;53.316;13.950;2023-05-07T13:58:49;5.30;;;2.10;;
11247;SDS011;5681;53.316;13.950;2023-05-07T14:01:17;4.07;;;2.00;;
11247;SDS011;5681;53.316;13.950;2023-05-07T14:03:43;4.45;;;2.35;;
11247;SDS011;5681;53.316;13.950;2023-05-07T14:06:10;4.88;;;2.60;;
11247;SDS011;5681;53.316;13.950;2023-05-07T14:08:36;3.63;;;2.20;;
11247;SDS011;5681;53.316;13.950;2023-05-07T14:11:03;7.10;;;2.30;;
11247;SDS011;5681;53.316;13.950;2023-05-07T14:13:29;5.88;;;2.47;;
11247;SDS011;5681;53.316;13.950;2023-05-07T14:15:55;3.80;;;2.40;;
11247;SDS011;5681;53.316;13.950;2023-05-07T14:18:23;4.72;;;2.50;;
11247;SDS011;5681;53.316;13.950;2023-05-07T14:20:49;3.00;;;2.10;;
11247;SDS011;5681;53.316;13.950;2023-05-07T14:23:16;4.38;;;2.35;;
11247;SDS011;5681;53.316;13.950;2023-05-07T14:25:44;7.40;;;2.38;;
11247;SDS011;5681;53.316;13.950;2023-05-07T14:28:12;4.57;;;2.58;;
11247;SDS011;5681;53.316;13.950;2023-05-07T14:30:38;6.63;;;2.30;;
11247;SDS011;5681;53.316;13.950;2023-05-07T14:33:05;8.85;;;2.45;;
11247;SDS011;5681;53.316;13.950;2023-05-07T14:35:32;3.35;;;2.40;;
11247;SDS011;5681;53.316;13.950;2023-05-07T14:37:59;4.05;;;2.42;;
11247;SDS011;5681;53.316;13.950;2023-05-07T14:40:25;2.58;;;2.15;;
11247;SDS011;5681;53.316;13.950;2023-05-07T14:42:51;5.82;;;2.65;;
11247;SDS011;5681;53.316;13.950;2023-05-07T14:45:18;4.95;;;2.20;;
11247;SDS011;5681;53.316;13.950;2023-05-07T14:47:44;5.30;;;2.50;;
11247;SDS011;5681;53.316;13.950;2023-05-07T14:50:10;6.20;;;2.30;;
11247;SDS011;5681;53.316;13.950;2023-05-07T14:52:38;3.08;;;2.00;;